Terminal Aerodrome Forecast
Issued by NWS

Home | Current Version | Previous Version | Text Only | Print | Product List | Glossary On
Versions: 1 2 3 4 5 6 7 8 9 10 11 12
000
FTUS44 KLIX 211133
TAFHDC
TAF
KHDC 211133Z 2112/2212 00000KT 6SM BR FEW003
     FM211400 VRB03KT P6SM SCT030
     FM211900 VRB03KT P6SM VCTS BKN040CB
     FM212100 04004KT P6SM SCT050 PROB30 2121/2124 4SM -TSRA
      BKN050CB
     FM221000 00000KT 4SM BR FEW050=

USA.gov is the U.S. government's official web portal to all federal, state and local government web resources and services.